createdAt,value
2023-03-11T00:00:30.123Z,98232.59
2023-03-11T00:03:32.684Z,98230.72
2023-03-11T00:06:36.058Z,98233.31
2023-03-11T00:09:38.730Z,98225.56
2023-03-11T00:12:41.331Z,98219.41
2023-03-11T00:15:45.845Z,98217.00
2023-03-11T00:18:50.923Z,98218.94
2023-03-11T00:21:53.671Z,98231.16
2023-03-11T00:24:56.251Z,98236.72
2023-03-11T00:27:59.482Z,98229.47
2023-03-11T00:31:02.773Z,98235.34
2023-03-11T00:34:05.401Z,98216.19
2023-03-11T00:37:09.102Z,98234.13
2023-03-11T00:40:14.100Z,98231.47
2023-03-11T00:43:17.561Z,98224.94
2023-03-11T00:46:20.621Z,98164.53
2023-03-11T00:49:23.454Z,98240.78
2023-03-11T00:52:26.140Z,98230.97
2023-03-11T00:55:31.263Z,98201.03
2023-03-11T00:58:35.981Z,98236.31
2023-03-11T01:01:39.050Z,98246.09
2023-03-11T01:04:41.768Z,98236.56
2023-03-11T01:07:44.273Z,98249.47
2023-03-11T01:10:46.836Z,98224.97
2023-03-11T01:13:49.542Z,98232.78
2023-03-11T01:16:53.925Z,98231.75
2023-03-11T01:19:56.576Z,98239.38
2023-03-11T01:22:59.207Z,98233.56
2023-03-11T01:26:01.791Z,98241.22
2023-03-11T01:29:04.546Z,98230.25
2023-03-11T01:32:07.684Z,98215.63
2023-03-11T01:35:15.199Z,98225.91
2023-03-11T01:38:17.851Z,98228.09
2023-03-11T01:41:20.464Z,98212.25
2023-03-11T01:44:23.295Z,98212.56
2023-03-11T01:47:39.954Z,98215.88
2023-03-11T01:50:49.831Z,98223.84
2023-03-11T01:53:54.140Z,98236.88
2023-03-11T01:56:57.693Z,98224.13
2023-03-11T02:00:02.207Z,98224.44
2023-03-11T02:03:19.184Z,98218.63
2023-03-11T02:06:23.747Z,98227.88
2023-03-11T02:09:27.174Z,98214.59
2023-03-11T02:12:34.460Z,98166.47
2023-03-11T02:15:39.574Z,98193.84
2023-03-11T02:18:43.073Z,98253.63
2023-03-11T02:21:45.814Z,98249.91
2023-03-11T02:25:09.639Z,98265.84
2023-03-11T02:28:15.024Z,98261.06
2023-03-11T02:31:18.388Z,98269.63
2023-03-11T02:34:27.706Z,98280.50
2023-03-11T02:37:30.414Z,98269.34
2023-03-11T02:40:50.359Z,98273.59
2023-03-11T02:43:55.339Z,98279.13
2023-03-11T02:47:00.949Z,98259.41
2023-03-11T02:50:05.403Z,98276.34
2023-03-11T02:53:08.995Z,98271.78
2023-03-11T02:56:11.608Z,98220.13
2023-03-11T02:59:14.139Z,98264.19
2023-03-11T03:02:16.973Z,98279.84
2023-03-11T03:05:21.595Z,98261.88
2023-03-11T03:08:24.990Z,98283.28
2023-03-11T03:11:27.814Z,98318.69
2023-03-11T03:14:30.542Z,98320.91
2023-03-11T03:17:33.128Z,98332.34
2023-03-11T03:20:35.998Z,98334.56
2023-03-11T03:23:38.724Z,98338.34
2023-03-11T03:26:41.477Z,98334.56
2023-03-11T03:29:44.186Z,98335.38
2023-03-11T03:32:47.666Z,98313.81
2023-03-11T03:35:52.457Z,98345.78
2023-03-11T03:39:01.741Z,98320.56
2023-03-11T03:42:08.775Z,98276.13
2023-03-11T03:45:15.700Z,98322.75
2023-03-11T03:48:18.842Z,98369.75
2023-03-11T03:51:21.725Z,98370.31
2023-03-11T03:54:53.591Z,98366.53
2023-03-11T03:57:56.346Z,98379.78
2023-03-11T04:01:01.985Z,98381.72
2023-03-11T04:04:05.241Z,98374.34
2023-03-11T04:07:08.507Z,98371.56
2023-03-11T04:10:14.417Z,98379.94
2023-03-11T04:13:18.069Z,98388.66
2023-03-11T04:16:23.064Z,98395.47
2023-03-11T04:19:28.017Z,98369.16
2023-03-11T04:22:30.924Z,98388.25
2023-03-11T04:25:34.898Z,98386.44
2023-03-11T04:28:38.524Z,98373.00
2023-03-11T04:31:41.376Z,98371.56
2023-03-11T04:34:45.035Z,98353.41
2023-03-11T04:37:49.718Z,98375.66
2023-03-11T04:40:52.858Z,98378.38
2023-03-11T04:43:55.459Z,98386.34
2023-03-11T04:46:58.298Z,98387.47
2023-03-11T04:50:01.343Z,98397.25
2023-03-11T04:53:04.137Z,98385.53
2023-03-11T04:56:07.167Z,98401.91
2023-03-11T04:59:11.726Z,98405.81
2023-03-11T05:02:15.917Z,98415.50
2023-03-11T05:05:26.498Z,98419.09
2023-03-11T05:08:29.058Z,98407.66
2023-03-11T05:11:31.669Z,98356.88
2023-03-11T05:14:34.406Z,98400.06
2023-03-11T05:17:37.248Z,98411.50
2023-03-11T05:20:41.127Z,98396.69
2023-03-11T05:23:45.573Z,98402.41
2023-03-11T05:26:50.077Z,98417.22
2023-03-11T05:29:52.888Z,98427.59
2023-03-11T05:32:56.824Z,98437.94
2023-03-11T05:36:06.034Z,98388.50
2023-03-11T05:39:09.026Z,98425.03
2023-03-11T05:42:12.243Z,98459.44
2023-03-11T05:45:15.914Z,98461.34
2023-03-11T05:48:21.381Z,98458.41
2023-03-11T05:51:24.478Z,98458.56
2023-03-11T05:54:27.300Z,98460.41
2023-03-11T05:57:30.556Z,98478.41
2023-03-11T06:00:33.742Z,98479.88
2023-03-11T06:03:40.053Z,98462.19
2023-03-11T06:06:42.741Z,98472.13
2023-03-11T06:09:45.927Z,98483.03
2023-03-11T06:12:53.047Z,98476.88
2023-03-11T06:16:00.908Z,98509.13
2023-03-11T06:19:03.759Z,98502.88
2023-03-11T06:22:10.725Z,98453.44
2023-03-11T06:25:13.762Z,98509.19
2023-03-11T06:28:18.099Z,98502.22
2023-03-11T06:31:25.393Z,98501.00
2023-03-11T06:34:29.000Z,98512.34
2023-03-11T06:37:31.659Z,98517.06
2023-03-11T06:40:34.261Z,98524.97
2023-03-11T06:43:36.955Z,98504.66
2023-03-11T06:46:40.637Z,98500.03
2023-03-11T06:49:43.562Z,98517.91
2023-03-11T06:52:46.433Z,98519.31
2023-03-11T06:56:04.490Z,98498.56
2023-03-11T06:59:10.310Z,98523.69
2023-03-11T07:02:13.883Z,98519.38
2023-03-11T07:05:18.297Z,98539.38
2023-03-11T07:08:21.795Z,98565.81
2023-03-11T07:11:28.211Z,98523.59
2023-03-11T07:14:38.039Z,98588.38
2023-03-11T07:17:40.720Z,98603.78
2023-03-11T07:20:44.059Z,98576.91
2023-03-11T07:23:46.852Z,98645.78
2023-03-11T07:26:49.391Z,98608.06
2023-03-11T07:29:51.944Z,98631.63
2023-03-11T07:32:54.498Z,98630.50
2023-03-11T07:35:57.241Z,98584.28
2023-03-11T07:39:04.484Z,98632.59
2023-03-11T07:42:07.318Z,98607.03
2023-03-11T07:45:11.628Z,98623.59
2023-03-11T07:48:14.863Z,98619.78
2023-03-11T07:51:26.562Z,98641.09
2023-03-11T07:54:29.472Z,98631.94
2023-03-11T07:57:32.001Z,98634.66
2023-03-11T08:00:34.603Z,98642.91
2023-03-11T08:03:37.708Z,98659.78
2023-03-11T08:06:43.074Z,98600.28
2023-03-11T08:09:45.607Z,98636.59
2023-03-11T08:12:48.187Z,98651.44
2023-03-11T08:15:50.708Z,98660.13
2023-03-11T08:18:53.515Z,98654.38
2023-03-11T08:21:57.384Z,98678.47
2023-03-11T08:24:59.986Z,98675.38
2023-03-11T08:28:02.720Z,98693.47
2023-03-11T08:31:13.388Z,98628.66
2023-03-11T08:34:16.148Z,98665.84
2023-03-11T08:37:18.765Z,98688.03
2023-03-11T08:40:21.346Z,98649.47
2023-03-11T08:43:23.857Z,98661.66
2023-03-11T08:46:32.865Z,98711.63
2023-03-11T08:49:36.448Z,98685.94
2023-03-11T08:52:38.993Z,98672.66
2023-03-11T08:55:41.560Z,98670.63
2023-03-11T08:58:44.154Z,98726.66
2023-03-11T09:01:47.045Z,98708.00
2023-03-11T09:04:49.644Z,98749.72
2023-03-11T09:07:52.239Z,98685.84
2023-03-11T09:10:54.857Z,98690.53
2023-03-11T09:13:57.684Z,98723.59
2023-03-11T09:17:00.440Z,98719.91
2023-03-11T09:20:04.233Z,98735.75
2023-03-11T09:23:07.255Z,98751.34
2023-03-11T09:26:09.868Z,98751.03
2023-03-11T09:29:12.518Z,98751.50
2023-03-11T09:32:15.791Z,98756.50
2023-03-11T09:35:18.461Z,98758.88
2023-03-11T09:38:21.064Z,98737.63
2023-03-11T09:41:58.038Z,98752.28
2023-03-11T09:45:10.054Z,98755.03
2023-03-11T09:48:32.420Z,98769.34
2023-03-11T09:51:42.000Z,98741.47
2023-03-11T09:54:51.077Z,98728.25
2023-03-11T09:57:54.956Z,98720.00
2023-03-11T10:00:57.718Z,98739.97
2023-03-11T10:04:40.105Z,98750.13
2023-03-11T10:07:47.512Z,98735.50
2023-03-11T10:11:11.251Z,98735.75
2023-03-11T10:14:25.957Z,98761.47
2023-03-11T10:17:40.575Z,98761.75
2023-03-11T10:20:55.808Z,98759.59
2023-03-11T10:24:32.230Z,98810.03
2023-03-11T10:27:57.085Z,98798.78
2023-03-11T10:31:19.033Z,98799.41
2023-03-11T10:34:44.275Z,98800.66
2023-03-11T10:37:54.972Z,98807.00
2023-03-11T10:41:01.551Z,98821.53
2023-03-11T10:44:13.901Z,98803.75
2023-03-11T10:47:23.169Z,98819.88
2023-03-11T10:50:25.850Z,98844.66
2023-03-11T10:53:29.184Z,98873.78
2023-03-11T10:56:40.602Z,98863.03
2023-03-11T10:59:48.690Z,98832.53
2023-03-11T11:02:53.967Z,98876.47
2023-03-11T11:06:06.030Z,98860.16
2023-03-11T11:09:21.252Z,98894.28
2023-03-11T11:12:23.748Z,98907.91
2023-03-11T11:15:35.449Z,98902.31
2023-03-11T11:18:59.648Z,98916.63
2023-03-11T11:22:06.171Z,98903.56
2023-03-11T11:25:30.337Z,98917.75
2023-03-11T11:28:34.071Z,98897.06
2023-03-11T11:31:46.619Z,98909.66
2023-03-11T11:35:01.409Z,98893.47
2023-03-11T11:38:04.386Z,98889.91
2023-03-11T11:41:09.561Z,98876.53
2023-03-11T11:44:16.017Z,98878.50
2023-03-11T11:47:30.130Z,98887.69
2023-03-11T11:50:44.759Z,98906.94
2023-03-11T11:53:50.510Z,98876.47
2023-03-11T11:56:55.000Z,98877.13
2023-03-11T11:59:57.794Z,98859.13
2023-03-11T12:03:10.586Z,98893.56
2023-03-11T12:06:32.852Z,98911.66
2023-03-11T12:09:50.669Z,98903.34
2023-03-11T12:12:58.916Z,98910.25
2023-03-11T12:16:19.416Z,98922.50
2023-03-11T12:19:39.786Z,98906.13
2023-03-11T12:23:05.726Z,98911.94
2023-03-11T12:26:21.889Z,98899.59
2023-03-11T12:29:37.304Z,98898.94
2023-03-11T12:33:22.524Z,98908.00
2023-03-11T12:36:37.655Z,98943.78
2023-03-11T12:39:40.317Z,98932.00
2023-03-11T12:42:42.780Z,98922.06
2023-03-11T12:45:51.294Z,98947.28
2023-03-11T12:49:12.063Z,98935.50
2023-03-11T12:52:14.529Z,98928.28
2023-03-11T12:55:16.991Z,98938.53
2023-03-11T12:59:04.427Z,98941.28
2023-03-11T13:02:09.732Z,98965.63
2023-03-11T13:05:48.220Z,98942.53
2023-03-11T13:08:54.972Z,98948.25
2023-03-11T13:11:57.693Z,98961.75
2023-03-11T13:15:18.407Z,98979.03
2023-03-11T13:18:33.348Z,98972.34
2023-03-11T13:21:39.273Z,98980.78
2023-03-11T13:24:49.408Z,98993.97
2023-03-11T13:27:56.055Z,98981.97
2023-03-11T13:31:05.266Z,99004.88
2023-03-11T13:34:26.302Z,99032.00
2023-03-11T13:37:41.144Z,99005.28
2023-03-11T13:40:45.421Z,99012.94
2023-03-11T13:43:50.658Z,99036.34
2023-03-11T13:46:58.453Z,99028.81
2023-03-11T13:50:13.111Z,99010.69
2023-03-11T13:53:43.162Z,99040.69
2023-03-11T13:56:51.120Z,99019.47
2023-03-11T13:59:57.022Z,99046.31
2023-03-11T14:03:04.863Z,99044.97
2023-03-11T14:06:12.384Z,99068.03
2023-03-11T14:09:23.774Z,99069.53
2023-03-11T14:12:31.102Z,99117.19
2023-03-11T14:15:43.936Z,99110.69
2023-03-11T14:19:04.021Z,99119.06
2023-03-11T14:22:09.196Z,99119.41
2023-03-11T14:25:18.915Z,99115.84
2023-03-11T14:28:21.865Z,99106.66
2023-03-11T14:31:41.921Z,99085.59
2023-03-11T14:34:46.068Z,99111.78
2023-03-11T14:37:49.080Z,99101.41
2023-03-11T14:41:02.633Z,99100.28
2023-03-11T14:44:05.914Z,99110.00
2023-03-11T14:47:20.025Z,99092.78
2023-03-11T14:50:35.247Z,99105.59
2023-03-11T14:53:45.718Z,99127.59
2023-03-11T14:56:53.019Z,99138.94
2023-03-11T14:59:57.049Z,99138.47
2023-03-11T15:03:24.966Z,99168.03
2023-03-11T15:06:29.438Z,99180.16
2023-03-11T15:09:32.809Z,99161.34
2023-03-11T15:12:43.692Z,99159.31
2023-03-11T15:15:55.384Z,99165.94
2023-03-11T15:19:23.586Z,99138.53
2023-03-11T15:22:30.260Z,99138.75
2023-03-11T15:25:36.673Z,99156.34
2023-03-11T15:28:39.953Z,99141.88
2023-03-11T15:31:46.821Z,99139.50
2023-03-11T15:35:22.253Z,99169.59
2023-03-11T15:38:28.477Z,99169.44
2023-03-11T15:41:31.097Z,99169.47
2023-03-11T15:44:36.522Z,99181.00
2023-03-11T15:47:39.720Z,99186.84
2023-03-11T15:50:54.834Z,99183.25
2023-03-11T15:53:57.653Z,99152.84
2023-03-11T15:57:01.371Z,99198.38
2023-03-11T16:00:05.078Z,99194.81
2023-03-11T16:03:09.616Z,99185.84
2023-03-11T16:06:12.168Z,99191.50
2023-03-11T16:09:16.888Z,99212.34
2023-03-11T16:12:21.464Z,99219.53
2023-03-11T16:15:28.697Z,99194.97
2023-03-11T16:18:32.520Z,99234.53
2023-03-11T16:21:37.905Z,99186.19
2023-03-11T16:24:40.789Z,99201.09
2023-03-11T16:27:43.520Z,99146.41
2023-03-11T16:30:46.787Z,99191.34
2023-03-11T16:33:49.434Z,99183.97
2023-03-11T16:36:52.065Z,99177.59
2023-03-11T16:39:54.684Z,99227.38
2023-03-11T16:43:08.460Z,99205.72
2023-03-11T16:46:11.105Z,99218.66
2023-03-11T16:49:13.752Z,99232.06
2023-03-11T16:52:20.193Z,99245.69
2023-03-11T16:55:23.876Z,99239.56
2023-03-11T16:58:26.597Z,99239.03
2023-03-11T17:01:29.254Z,99283.34
2023-03-11T17:04:32.095Z,99278.31
2023-03-11T17:07:35.901Z,99280.38
2023-03-11T17:10:43.617Z,99273.91
2023-03-11T17:13:46.517Z,99281.00
2023-03-11T17:16:49.330Z,99301.50
2023-03-11T17:19:52.005Z,99309.41
2023-03-11T17:22:54.554Z,99313.66
2023-03-11T17:25:57.358Z,99349.69
2023-03-11T17:29:00.140Z,99326.63
2023-03-11T17:32:03.837Z,99333.91
2023-03-11T17:35:07.182Z,99352.94
2023-03-11T17:38:09.954Z,99358.84
2023-03-11T17:41:15.310Z,99358.63
2023-03-11T17:44:18.108Z,99363.31
2023-03-11T17:47:21.420Z,99380.50
2023-03-11T17:50:24.253Z,99371.19
2023-03-11T17:53:26.970Z,99386.19
2023-03-11T17:56:29.747Z,99389.44
2023-03-11T17:59:32.440Z,99432.50
2023-03-11T18:02:35.297Z,99394.69
2023-03-11T18:05:39.777Z,99402.75
2023-03-11T18:08:42.964Z,99406.78
2023-03-11T18:11:45.741Z,99402.13
2023-03-11T18:14:48.576Z,99413.84
2023-03-11T18:17:51.237Z,99420.91
2023-03-11T18:20:54.029Z,99427.63
2023-03-11T18:23:57.952Z,99419.53
2023-03-11T18:27:00.767Z,99431.63
2023-03-11T18:30:08.232Z,99433.88
2023-03-11T18:33:10.974Z,99451.22
2023-03-11T18:36:25.505Z,99453.25
2023-03-11T18:39:28.314Z,99471.41
2023-03-11T18:42:32.407Z,99460.94
2023-03-11T18:45:35.247Z,99471.78
2023-03-11T18:48:38.477Z,99482.06
2023-03-11T18:51:41.419Z,99492.84
2023-03-11T18:54:45.300Z,99485.97
2023-03-11T18:57:47.904Z,99504.53
2023-03-11T19:00:51.875Z,99503.53
2023-03-11T19:03:56.754Z,99474.91
2023-03-11T19:06:59.469Z,99499.00
2023-03-11T19:10:02.135Z,99505.13
2023-03-11T19:13:04.884Z,99516.19
2023-03-11T19:16:09.007Z,99518.63
2023-03-11T19:19:12.214Z,99515.44
2023-03-11T19:22:14.903Z,99525.72
2023-03-11T19:25:19.278Z,99521.94
2023-03-11T19:28:22.720Z,99515.00
2023-03-11T19:31:25.467Z,99519.38
2023-03-11T19:34:29.029Z,99538.44
2023-03-11T19:37:31.939Z,99532.88
2023-03-11T19:40:34.677Z,99539.16
2023-03-11T19:43:37.396Z,99551.31
2023-03-11T19:46:40.248Z,99557.31
2023-03-11T19:49:42.962Z,99564.31
2023-03-11T19:52:45.882Z,99576.56
2023-03-11T19:55:52.918Z,99579.84
2023-03-11T19:58:56.863Z,99579.72
2023-03-11T20:01:59.683Z,99587.78
2023-03-11T20:05:02.542Z,99588.19
2023-03-11T20:08:06.887Z,99589.59
2023-03-11T20:11:09.823Z,99600.69
2023-03-11T20:14:13.156Z,99600.97
2023-03-11T20:17:16.036Z,99583.44
2023-03-11T20:20:18.691Z,99587.81
2023-03-11T20:23:21.412Z,99600.75
2023-03-11T20:26:25.109Z,99600.88
2023-03-11T20:29:27.848Z,99604.38
2023-03-11T20:32:31.095Z,99601.19
2023-03-11T20:35:34.412Z,99601.59
2023-03-11T20:38:37.415Z,99552.28
2023-03-11T20:41:40.793Z,99603.56
2023-03-11T20:44:43.588Z,99615.38
2023-03-11T20:47:46.496Z,99615.28
2023-03-11T20:50:49.409Z,99625.47
2023-03-11T20:53:52.473Z,99628.22
2023-03-11T20:56:55.383Z,99626.50
2023-03-11T20:59:58.161Z,99639.31
2023-03-11T21:03:01.145Z,99640.72
2023-03-11T21:06:04.387Z,99656.63
2023-03-11T21:09:11.575Z,99648.66
2023-03-11T21:12:14.316Z,99648.09
2023-03-11T21:15:17.154Z,99659.34
2023-03-11T21:18:19.688Z,99654.91
2023-03-11T21:21:22.597Z,99654.34
2023-03-11T21:24:25.208Z,99670.97
2023-03-11T21:27:27.893Z,99671.00
2023-03-11T21:30:30.548Z,99678.13
2023-03-11T21:33:33.613Z,99683.38
2023-03-11T21:36:37.985Z,99688.03
2023-03-11T21:39:40.720Z,99682.16
2023-03-11T21:42:43.264Z,99664.06
2023-03-11T21:45:46.932Z,99655.56
2023-03-11T21:48:49.934Z,99660.13
2023-03-11T21:51:52.682Z,99680.06
2023-03-11T21:54:56.557Z,99693.50
2023-03-11T21:57:59.389Z,99682.56
2023-03-11T22:01:02.158Z,99711.78
2023-03-11T22:04:05.185Z,99711.59
2023-03-11T22:07:08.138Z,99711.78
2023-03-11T22:10:11.501Z,99695.63
2023-03-11T22:13:14.193Z,99708.84
2023-03-11T22:16:18.209Z,99718.78
2023-03-11T22:19:20.894Z,99726.84
2023-03-11T22:22:23.551Z,99738.59
2023-03-11T22:25:26.197Z,99734.72
2023-03-11T22:28:29.150Z,99746.84
2023-03-11T22:31:31.858Z,99753.50
2023-03-11T22:34:34.431Z,99754.59
2023-03-11T22:37:37.012Z,99747.00
2023-03-11T22:40:39.589Z,99762.47
2023-03-11T22:43:42.170Z,99772.50
2023-03-11T22:46:44.797Z,99769.84
2023-03-11T22:49:47.658Z,99751.03
2023-03-11T22:52:50.173Z,99779.81
2023-03-11T22:55:53.153Z,99780.88
2023-03-11T22:58:55.729Z,99768.50
2023-03-11T23:01:58.559Z,99782.59
2023-03-11T23:05:01.035Z,99793.78
2023-03-11T23:08:03.770Z,99769.25
2023-03-11T23:11:09.750Z,99792.09
2023-03-11T23:14:12.232Z,99804.25
2023-03-11T23:17:14.702Z,99797.50
2023-03-11T23:20:17.568Z,99794.47
2023-03-11T23:23:20.093Z,99818.88
2023-03-11T23:26:23.348Z,99821.56
2023-03-11T23:29:25.973Z,99798.34
2023-03-11T23:32:28.839Z,99833.56
2023-03-11T23:35:32.484Z,99814.66
2023-03-11T23:38:36.144Z,99833.22
2023-03-11T23:41:38.730Z,99854.78
2023-03-11T23:45:00.080Z,99855.50
2023-03-11T23:48:02.686Z,99850.41
2023-03-11T23:51:05.886Z,99853.66
2023-03-11T23:54:08.549Z,99853.03
2023-03-11T23:57:11.107Z,99841.97
